createdAt,value
2023-10-06T00:02:22.237Z,99431.22
2023-10-06T00:04:49.476Z,99438.31
2023-10-06T00:07:16.500Z,99433.09
2023-10-06T00:09:45.835Z,99430.47
2023-10-06T00:12:14.884Z,99433.09
2023-10-06T00:14:42.307Z,99433.19
2023-10-06T00:17:12.960Z,99437.63
2023-10-06T00:19:40.606Z,99438.56
2023-10-06T00:22:16.226Z,99435.09
2023-10-06T00:24:43.427Z,99435.91
2023-10-06T00:27:13.077Z,99439.47
2023-10-06T00:29:41.028Z,99432.34
2023-10-06T00:32:23.138Z,99432.44
2023-10-06T00:34:50.536Z,99427.16
2023-10-06T00:37:18.306Z,99416.63
2023-10-06T00:39:45.510Z,99409.59
2023-10-06T00:42:16.141Z,99406.09
2023-10-06T00:44:46.610Z,99404.28
2023-10-06T00:47:14.872Z,99405.88
2023-10-06T00:49:44.632Z,99405.09
2023-10-06T00:52:16.872Z,99411.25
2023-10-06T00:54:45.156Z,99416.53
2023-10-06T00:57:13.933Z,99413.00
2023-10-06T00:59:42.786Z,99418.28
2023-10-06T01:02:13.085Z,99416.53
2023-10-06T01:04:47.243Z,99413.13
2023-10-06T01:07:15.119Z,99418.50
2023-10-06T01:09:57.463Z,99412.38
2023-10-06T01:12:30.864Z,99422.84
2023-10-06T01:15:06.862Z,99413.28
2023-10-06T01:17:34.560Z,99411.50
2023-10-06T01:20:01.402Z,99415.91
2023-10-06T01:22:31.992Z,99413.31
2023-10-06T01:25:05.792Z,99417.78
2023-10-06T01:27:32.494Z,99413.41
2023-10-06T01:30:17.270Z,99407.28
2023-10-06T01:32:45.439Z,99402.91
2023-10-06T01:35:13.800Z,99410.78
2023-10-06T01:37:42.290Z,99401.16
2023-10-06T01:40:30.646Z,99401.19
2023-10-06T01:42:58.011Z,99403.94
2023-10-06T01:45:24.872Z,99393.47
2023-10-06T01:47:59.270Z,99396.09
2023-10-06T01:50:27.924Z,99395.25
2023-10-06T01:52:57.208Z,99391.75
2023-10-06T01:55:25.921Z,99385.69
2023-10-06T01:57:52.902Z,99379.56
2023-10-06T02:00:27.506Z,99378.66
2023-10-06T02:02:54.622Z,99360.16
2023-10-06T02:05:21.649Z,99369.91
2023-10-06T02:07:48.605Z,99369.06
2023-10-06T02:10:16.885Z,99370.97
2023-10-06T02:12:43.593Z,99368.34
2023-10-06T02:15:13.645Z,99371.03
2023-10-06T02:17:45.884Z,99374.63
2023-10-06T02:20:30.035Z,99373.81
2023-10-06T02:23:01.422Z,99377.34
2023-10-06T02:25:29.097Z,99384.41
2023-10-06T02:27:57.900Z,99382.72
2023-10-06T02:30:48.208Z,99381.81
2023-10-06T02:33:14.759Z,99380.97
2023-10-06T02:35:47.562Z,99381.03
2023-10-06T02:38:14.504Z,99376.66
2023-10-06T02:40:50.073Z,99375.81
2023-10-06T02:43:21.461Z,99384.59
2023-10-06T02:45:48.146Z,99388.09
2023-10-06T02:48:18.661Z,99389.03
2023-10-06T02:50:50.672Z,99393.41
2023-10-06T02:53:22.068Z,99398.69
2023-10-06T02:55:56.975Z,99401.31
2023-10-06T02:58:29.144Z,99396.09
2023-10-06T03:00:57.351Z,99393.50
2023-10-06T03:03:34.988Z,99400.53
2023-10-06T03:06:08.728Z,99404.06
2023-10-06T03:08:36.817Z,99409.31
2023-10-06T03:11:04.416Z,99411.94
2023-10-06T03:13:35.092Z,99405.84
2023-10-06T03:16:02.456Z,99398.88
2023-10-06T03:18:31.854Z,99413.75
2023-10-06T03:21:06.146Z,99409.31
2023-10-06T03:23:32.972Z,99411.09
2023-10-06T03:25:59.735Z,99402.31
2023-10-06T03:28:34.257Z,99402.22
2023-10-06T03:31:06.167Z,99396.84
2023-10-06T03:33:33.355Z,99399.47
2023-10-06T03:35:59.979Z,99397.56
2023-10-06T03:38:29.281Z,99390.53
2023-10-06T03:40:59.346Z,99386.91
2023-10-06T03:43:44.416Z,99385.13
2023-10-06T03:46:15.601Z,99387.78
2023-10-06T03:48:42.353Z,99386.03
2023-10-06T03:51:09.044Z,99387.75
2023-10-06T03:53:36.041Z,99386.91
2023-10-06T03:56:02.726Z,99381.66
2023-10-06T03:58:29.760Z,99381.63
2023-10-06T04:00:56.661Z,99387.84
2023-10-06T04:03:24.400Z,99394.84
2023-10-06T04:05:52.659Z,99380.84
2023-10-06T04:08:22.835Z,99394.06
2023-10-06T04:10:53.226Z,99398.50
2023-10-06T04:13:21.357Z,99392.38
2023-10-06T04:15:51.929Z,99388.00
2023-10-06T04:18:20.604Z,99374.00
2023-10-06T04:20:47.565Z,99384.50
2023-10-06T04:23:16.119Z,99389.84
2023-10-06T04:25:43.086Z,99381.06
2023-10-06T04:28:14.996Z,99384.59
2023-10-06T04:30:44.164Z,99382.81
2023-10-06T04:33:12.935Z,99373.16
2023-10-06T04:35:49.214Z,99374.78
2023-10-06T04:38:16.128Z,99382.59
2023-10-06T04:40:43.052Z,99375.47
2023-10-06T04:43:11.000Z,99372.00
2023-10-06T04:45:40.172Z,99367.47
2023-10-06T04:48:09.390Z,99365.75
2023-10-06T04:50:36.764Z,99365.69
2023-10-06T04:53:07.314Z,99370.97
2023-10-06T04:55:39.017Z,99365.66
2023-10-06T04:58:16.244Z,99363.81
2023-10-06T05:00:43.600Z,99363.00
2023-10-06T05:03:12.659Z,99372.56
2023-10-06T05:05:39.925Z,99373.53
2023-10-06T05:08:11.189Z,99375.44
2023-10-06T05:10:38.467Z,99386.78
2023-10-06T05:13:07.507Z,99387.72
2023-10-06T05:15:38.313Z,99384.19
2023-10-06T05:18:05.955Z,99382.38
2023-10-06T05:20:35.080Z,99384.16
2023-10-06T05:23:06.751Z,99377.19
2023-10-06T05:25:34.457Z,99379.06
2023-10-06T05:28:01.376Z,99382.66
2023-10-06T05:30:28.818Z,99374.88
2023-10-06T05:32:59.490Z,99372.19
2023-10-06T05:35:27.241Z,99377.34
2023-10-06T05:37:54.590Z,99380.91
2023-10-06T05:40:21.897Z,99380.84
2023-10-06T05:42:50.795Z,99379.03
2023-10-06T05:45:19.718Z,99385.06
2023-10-06T05:47:48.992Z,99379.84
2023-10-06T05:50:31.221Z,99378.94
2023-10-06T05:53:14.450Z,99381.56
2023-10-06T05:55:44.772Z,99383.25
2023-10-06T05:58:15.794Z,99376.16
2023-10-06T06:00:52.619Z,99373.44
2023-10-06T06:03:23.110Z,99371.69
2023-10-06T06:05:58.980Z,99364.63
2023-10-06T06:08:25.691Z,99360.25
2023-10-06T06:10:52.456Z,99361.97
2023-10-06T06:13:21.071Z,99366.34
2023-10-06T06:15:52.262Z,99370.72
2023-10-06T06:18:18.993Z,99366.16
2023-10-06T06:20:47.339Z,99359.09
2023-10-06T06:23:15.319Z,99364.25
2023-10-06T06:25:43.499Z,99363.38
2023-10-06T06:28:13.552Z,99362.41
2023-10-06T06:30:41.331Z,99357.91
2023-10-06T06:33:20.353Z,99357.72
2023-10-06T06:35:47.545Z,99371.66
2023-10-06T06:38:14.882Z,99388.28
2023-10-06T06:40:42.455Z,99396.06
2023-10-06T06:43:11.213Z,99392.53
2023-10-06T06:45:41.501Z,99400.22
2023-10-06T06:48:14.952Z,99397.38
2023-10-06T06:50:45.749Z,99396.28
2023-10-06T06:53:13.488Z,99410.13
2023-10-06T06:55:43.028Z,99407.13
2023-10-06T06:58:12.834Z,99412.19
2023-10-06T07:00:42.938Z,99417.19
2023-10-06T07:03:12.317Z,99419.31
2023-10-06T07:05:39.982Z,99424.19
2023-10-06T07:08:06.955Z,99421.88
2023-10-06T07:10:34.360Z,99422.22
2023-10-06T07:13:02.125Z,99415.38
2023-10-06T07:15:30.621Z,99411.31
2023-10-06T07:17:59.512Z,99403.72
2023-10-06T07:20:29.244Z,99398.47
2023-10-06T07:22:57.626Z,99388.94
2023-10-06T07:25:27.608Z,99372.53
2023-10-06T07:27:56.695Z,99381.00
2023-10-06T07:30:25.301Z,99383.97
2023-10-06T07:32:54.185Z,99381.94
2023-10-06T07:35:29.069Z,99393.09
2023-10-06T07:37:55.951Z,99394.16
2023-10-06T07:40:22.802Z,99405.34
2023-10-06T07:42:53.337Z,99401.00
2023-10-06T07:45:23.487Z,99397.25
2023-10-06T07:47:51.924Z,99393.03
2023-10-06T07:50:18.782Z,99391.94
2023-10-06T07:52:48.213Z,99389.91
2023-10-06T07:55:17.136Z,99388.41
2023-10-06T07:57:47.022Z,99390.63
2023-10-06T08:00:36.633Z,99381.66
2023-10-06T08:03:05.164Z,99380.84
2023-10-06T08:05:32.397Z,99378.19
2023-10-06T08:08:00.439Z,99375.00
2023-10-06T08:10:29.273Z,99374.88
2023-10-06T08:12:58.046Z,99389.34
2023-10-06T08:15:29.239Z,99393.59
2023-10-06T08:17:58.071Z,99379.78
2023-10-06T08:20:27.200Z,99378.56
2023-10-06T08:22:54.614Z,99378.41
2023-10-06T08:25:23.926Z,99378.03
2023-10-06T08:27:51.716Z,99373.09
2023-10-06T08:30:22.683Z,99366.81
2023-10-06T08:32:53.830Z,99365.03
2023-10-06T08:35:21.991Z,99371.13
2023-10-06T08:37:51.404Z,99363.78
2023-10-06T08:40:28.350Z,99366.34
2023-10-06T08:42:57.679Z,99370.09
2023-10-06T08:45:27.100Z,99364.06
2023-10-06T08:48:03.424Z,99351.69
2023-10-06T08:50:34.560Z,99336.91
2023-10-06T08:53:06.591Z,99346.22
2023-10-06T08:55:34.511Z,99342.91
2023-10-06T08:58:04.568Z,99335.41
2023-10-06T09:00:36.683Z,99343.38
2023-10-06T09:03:10.965Z,99333.53
2023-10-06T09:05:47.664Z,99319.34
2023-10-06T09:08:16.788Z,99317.81
2023-10-06T09:10:53.583Z,99317.22
2023-10-06T09:13:22.704Z,99310.69
2023-10-06T09:16:08.026Z,99318.25
2023-10-06T09:18:41.340Z,99321.41
2023-10-06T09:21:22.594Z,99314.44
2023-10-06T09:23:50.861Z,99313.00
2023-10-06T09:26:32.924Z,99305.19
2023-10-06T09:29:03.866Z,99316.28
2023-10-06T09:31:38.960Z,99322.16
2023-10-06T09:34:11.292Z,99311.84
2023-10-06T09:36:47.667Z,99307.56
2023-10-06T09:39:27.508Z,99319.72
2023-10-06T09:41:55.657Z,99317.63
2023-10-06T09:44:24.390Z,99313.28
2023-10-06T09:46:55.076Z,99323.66
2023-10-06T09:49:23.282Z,99320.19
2023-10-06T09:51:53.147Z,99306.56
2023-10-06T09:54:21.881Z,99308.78
2023-10-06T09:56:49.431Z,99307.50
2023-10-06T09:59:17.380Z,99314.47
2023-10-06T10:01:44.416Z,99315.28
2023-10-06T10:04:13.149Z,99311.66
2023-10-06T10:06:45.774Z,99308.28
2023-10-06T10:09:19.235Z,99298.03
2023-10-06T10:11:54.526Z,99305.94
2023-10-06T10:15:04.310Z,99297.72
2023-10-06T10:17:55.295Z,99312.38
2023-10-06T10:20:26.953Z,99299.91
2023-10-06T10:22:57.619Z,99295.50
2023-10-06T10:25:25.851Z,99292.69
2023-10-06T10:28:11.976Z,99283.78
2023-10-06T10:30:58.358Z,99284.75
2023-10-06T10:33:26.892Z,99280.25
2023-10-06T10:36:16.485Z,99281.53
2023-10-06T10:38:43.647Z,99271.91
2023-10-06T10:41:12.737Z,99281.28
2023-10-06T10:43:44.451Z,99269.03
2023-10-06T10:46:14.080Z,99263.00
2023-10-06T10:48:49.127Z,99260.16
2023-10-06T10:51:16.537Z,99260.31
2023-10-06T10:53:45.368Z,99253.31
2023-10-06T10:56:16.445Z,99255.94
2023-10-06T10:58:43.261Z,99257.44
2023-10-06T11:01:52.870Z,99258.88
2023-10-06T11:04:30.229Z,99255.53
2023-10-06T11:07:11.566Z,99257.94
2023-10-06T11:09:42.450Z,99253.56
2023-10-06T11:12:31.952Z,99245.00
2023-10-06T11:15:26.031Z,99238.72
2023-10-06T11:17:56.846Z,99252.28
2023-10-06T11:20:24.257Z,99246.22
2023-10-06T11:23:01.512Z,99247.88
2023-10-06T11:25:30.266Z,99237.81
2023-10-06T11:28:11.090Z,99240.78
2023-10-06T11:30:40.372Z,99234.19
2023-10-06T11:33:13.123Z,99229.50
2023-10-06T11:35:42.111Z,99220.41
2023-10-06T11:38:17.204Z,99217.56
2023-10-06T11:40:44.329Z,99226.84
2023-10-06T11:43:14.685Z,99222.91
2023-10-06T11:45:43.377Z,99215.72
2023-10-06T11:48:27.172Z,99205.50
2023-10-06T11:51:08.846Z,99205.63
2023-10-06T11:53:38.038Z,99202.53
2023-10-06T11:56:16.831Z,99192.00
2023-10-06T11:58:45.782Z,99204.47
2023-10-06T12:01:38.567Z,99197.31
2023-10-06T12:04:06.930Z,99200.06
2023-10-06T12:06:40.318Z,99196.34
2023-10-06T12:09:09.787Z,99185.09
2023-10-06T12:11:36.919Z,99166.69
2023-10-06T12:14:05.275Z,99168.03
2023-10-06T12:16:32.313Z,99165.50
2023-10-06T12:18:59.740Z,99155.22
2023-10-06T12:21:26.492Z,99152.06
2023-10-06T12:23:53.715Z,99156.50
2023-10-06T12:26:20.415Z,99140.50
2023-10-06T12:28:47.627Z,99139.56
2023-10-06T12:31:14.600Z,99136.97
2023-10-06T12:33:41.493Z,99140.47
2023-10-06T12:36:10.484Z,99147.81
2023-10-06T12:38:37.514Z,99153.38
2023-10-06T12:41:08.657Z,99142.13
2023-10-06T12:43:37.359Z,99143.41
2023-10-06T12:46:05.619Z,99126.69
2023-10-06T12:48:33.679Z,99138.13
2023-10-06T12:51:00.541Z,99134.22
2023-10-06T12:53:27.443Z,99141.41
2023-10-06T12:55:57.904Z,99128.03
2023-10-06T12:58:24.880Z,99133.00
2023-10-06T13:00:52.002Z,99128.69
2023-10-06T13:03:18.713Z,99116.50
2023-10-06T13:05:47.046Z,99105.31
2023-10-06T13:08:26.338Z,99093.16
2023-10-06T13:10:55.255Z,99097.16
2023-10-06T13:13:22.192Z,99099.38
2023-10-06T13:15:48.989Z,99105.78
2023-10-06T13:18:19.127Z,99111.06
2023-10-06T13:20:46.968Z,99098.91
2023-10-06T13:23:14.087Z,99094.28
2023-10-06T13:25:42.910Z,99096.56
2023-10-06T13:28:19.488Z,99090.91
2023-10-06T13:30:47.247Z,99080.72
2023-10-06T13:33:15.875Z,99086.66
2023-10-06T13:35:45.121Z,99080.84
2023-10-06T13:38:14.033Z,99080.22
2023-10-06T13:40:41.797Z,99074.22
2023-10-06T13:43:08.884Z,99064.97
2023-10-06T13:45:35.980Z,99069.69
2023-10-06T13:48:05.225Z,99063.38
2023-10-06T13:50:32.608Z,99067.44
2023-10-06T13:52:59.510Z,99064.22
2023-10-06T13:55:26.330Z,99065.03
2023-10-06T13:57:54.594Z,99066.72
2023-10-06T14:00:31.351Z,99064.03
2023-10-06T14:03:01.232Z,99063.09
2023-10-06T14:05:32.506Z,99059.03
2023-10-06T14:08:05.397Z,99052.06
2023-10-06T14:10:33.339Z,99047.31
2023-10-06T14:13:06.612Z,99056.66
2023-10-06T14:15:42.581Z,99059.25
2023-10-06T14:18:13.950Z,99053.44
2023-10-06T14:20:51.319Z,99052.56
2023-10-06T14:23:21.465Z,99049.75
2023-10-06T14:25:48.271Z,99050.81
2023-10-06T14:28:15.054Z,99049.25
2023-10-06T14:30:44.612Z,99047.09
2023-10-06T14:33:16.109Z,99047.22
2023-10-06T14:35:59.202Z,99042.50
2023-10-06T14:38:34.188Z,99039.41
2023-10-06T14:41:21.567Z,99035.47
2023-10-06T14:44:14.617Z,99033.31
2023-10-06T14:46:44.124Z,99043.81
2023-10-06T14:49:14.774Z,99027.56
2023-10-06T14:51:43.307Z,99029.03
2023-10-06T14:54:12.595Z,99028.41
2023-10-06T14:56:39.888Z,99028.88
2023-10-06T14:59:10.095Z,99026.13
2023-10-06T15:01:41.649Z,99021.53
2023-10-06T15:07:00.385Z,99024.81
2023-10-06T15:09:27.950Z,99024.81
2023-10-06T15:11:54.801Z,99017.91
2023-10-06T15:14:26.742Z,99019.75
2023-10-06T15:16:54.851Z,99014.03
2023-10-06T15:19:26.665Z,99008.34
2023-10-06T15:21:56.348Z,99016.69
2023-10-06T15:24:23.552Z,99000.13
2023-10-06T15:26:51.529Z,99000.91
2023-10-06T15:29:22.606Z,98988.84
2023-10-06T15:31:50.767Z,98988.75
2023-10-06T15:34:20.705Z,98985.38
2023-10-06T15:36:47.279Z,98987.69
2023-10-06T15:39:21.302Z,98991.38
2023-10-06T15:41:49.915Z,98997.91
2023-10-06T15:44:18.156Z,98987.53
2023-10-06T15:46:46.398Z,98995.66
2023-10-06T15:49:17.169Z,98997.16
2023-10-06T15:51:48.657Z,98993.91
2023-10-06T15:54:17.534Z,98992.19
2023-10-06T15:56:45.149Z,98991.13
2023-10-06T15:59:16.713Z,99002.03
2023-10-06T16:01:45.877Z,98997.75
2023-10-06T16:04:15.355Z,98985.84
2023-10-06T16:06:44.631Z,98988.25
2023-10-06T16:09:17.244Z,98996.03
2023-10-06T16:11:44.679Z,99000.47
2023-10-06T16:14:12.321Z,99001.88
2023-10-06T16:16:39.034Z,99003.97
2023-10-06T16:19:06.220Z,99001.41
2023-10-06T16:21:34.531Z,99002.59
2023-10-06T16:24:01.822Z,98999.06
2023-10-06T16:26:31.593Z,99002.03
2023-10-06T16:29:02.270Z,98997.72
2023-10-06T16:31:30.761Z,98996.13
2023-10-06T16:33:58.613Z,98999.94
2023-10-06T16:36:25.577Z,98992.91
2023-10-06T16:38:52.559Z,98986.41
2023-10-06T16:41:22.953Z,98989.09
2023-10-06T16:43:59.257Z,98993.44
2023-10-06T16:46:26.717Z,99002.81
2023-10-06T16:48:53.764Z,98999.38
2023-10-06T16:51:21.626Z,99008.41
2023-10-06T16:53:49.993Z,98988.97
2023-10-06T16:56:17.362Z,98983.50
2023-10-06T16:58:44.243Z,98997.97
2023-10-06T17:01:11.264Z,98989.41
2023-10-06T17:03:38.703Z,98990.94
2023-10-06T17:06:07.667Z,98977.00
2023-10-06T17:08:34.782Z,98980.34
2023-10-06T17:11:12.780Z,98987.47
2023-10-06T17:13:39.378Z,98988.78
2023-10-06T17:16:10.691Z,98998.81
2023-10-06T17:18:37.940Z,98999.75
2023-10-06T17:21:08.300Z,98987.41
2023-10-06T17:23:35.487Z,98991.78
2023-10-06T17:26:03.610Z,98992.59
2023-10-06T17:28:31.397Z,99004.25
2023-10-06T17:31:02.332Z,99006.63
2023-10-06T17:33:30.313Z,99004.91
2023-10-06T17:36:00.243Z,98996.47
2023-10-06T17:38:27.145Z,98989.31
2023-10-06T17:41:00.569Z,98993.25
2023-10-06T17:43:28.116Z,98993.25
2023-10-06T17:45:56.246Z,98994.31
2023-10-06T17:48:24.904Z,98988.22
2023-10-06T17:50:51.758Z,98984.84
2023-10-06T17:53:18.524Z,98991.00
2023-10-06T17:55:53.553Z,98983.97
2023-10-06T17:58:21.403Z,98983.41
2023-10-06T18:00:48.755Z,98979.13
2023-10-06T18:03:18.765Z,98972.97
2023-10-06T18:05:49.206Z,98971.06
2023-10-06T18:08:17.520Z,98972.72
2023-10-06T18:10:44.910Z,98979.19
2023-10-06T18:13:12.166Z,98984.44
2023-10-06T18:15:39.036Z,98983.75
2023-10-06T18:18:05.981Z,98972.31
2023-10-06T18:20:39.589Z,98971.88
2023-10-06T18:23:07.096Z,98969.94
2023-10-06T18:25:37.264Z,98974.88
2023-10-06T18:28:05.292Z,98969.78
2023-10-06T18:30:32.601Z,98968.19
2023-10-06T18:32:59.766Z,98983.88
2023-10-06T18:35:26.535Z,98981.38
2023-10-06T18:37:54.588Z,98973.22
2023-10-06T18:40:21.727Z,98969.78
2023-10-06T18:42:48.736Z,98975.28
2023-10-06T18:45:15.546Z,98972.56
2023-10-06T18:47:42.359Z,98967.06
2023-10-06T18:50:30.351Z,98967.00
2023-10-06T18:52:57.118Z,98967.00
2023-10-06T18:55:24.397Z,98963.69
2023-10-06T18:57:52.257Z,98958.09
2023-10-06T19:00:23.736Z,98966.19
2023-10-06T19:02:51.948Z,98963.50
2023-10-06T19:05:19.315Z,98957.31
2023-10-06T19:07:46.092Z,98965.97
2023-10-06T19:10:15.860Z,98956.03
2023-10-06T19:12:43.387Z,98958.41
2023-10-06T19:15:10.366Z,98946.81
2023-10-06T19:17:40.718Z,98957.06
2023-10-06T19:20:09.083Z,98954.41
2023-10-06T19:22:35.946Z,98958.03
2023-10-06T19:25:03.053Z,98953.38
2023-10-06T19:27:29.862Z,98958.69
2023-10-06T19:29:56.445Z,98950.53
2023-10-06T19:32:24.964Z,98948.94
2023-10-06T19:34:52.936Z,98950.53
2023-10-06T19:37:21.090Z,98955.72
2023-10-06T19:39:47.920Z,98953.13
2023-10-06T19:42:14.859Z,98946.84
2023-10-06T19:44:44.707Z,98948.16
2023-10-06T19:47:14.125Z,98948.63
2023-10-06T19:49:41.358Z,98949.50
2023-10-06T19:52:09.462Z,98957.69
2023-10-06T19:54:36.897Z,98948.94
2023-10-06T19:57:03.893Z,98935.78
2023-10-06T19:59:33.943Z,98934.84
2023-10-06T20:02:02.410Z,98936.25
2023-10-06T20:04:29.346Z,98926.44
2023-10-06T20:06:56.142Z,98926.59
2023-10-06T20:09:25.485Z,98926.69
2023-10-06T20:11:52.324Z,98931.97
2023-10-06T20:14:19.121Z,98931.06
2023-10-06T20:16:46.082Z,98934.41
2023-10-06T20:19:17.286Z,98938.16
2023-10-06T20:21:44.615Z,98939.13
2023-10-06T20:24:13.502Z,98947.88
2023-10-06T20:26:44.644Z,98941.94
2023-10-06T20:29:11.811Z,98937.75
2023-10-06T20:31:39.814Z,98943.16
2023-10-06T20:34:07.335Z,98941.22
2023-10-06T20:36:35.374Z,98937.06
2023-10-06T20:39:09.857Z,98941.00
2023-10-06T20:41:41.507Z,98947.25
2023-10-06T20:44:12.730Z,98951.75
2023-10-06T20:46:41.373Z,98949.88
2023-10-06T20:49:13.261Z,98952.50
2023-10-06T20:51:40.096Z,98958.03
2023-10-06T20:54:08.191Z,98955.50
2023-10-06T20:56:34.970Z,98958.19
2023-10-06T20:59:01.917Z,98967.84
2023-10-06T21:01:31.888Z,98957.31
2023-10-06T21:04:05.214Z,98960.34
2023-10-06T21:06:35.758Z,98960.91
2023-10-06T21:09:05.835Z,98958.09
2023-10-06T21:11:38.117Z,98959.09
2023-10-06T21:14:05.920Z,98960.25
2023-10-06T21:16:33.280Z,98948.63
2023-10-06T21:19:00.259Z,98938.72
2023-10-06T21:21:27.254Z,98940.34
2023-10-06T21:23:54.139Z,98933.75
2023-10-06T21:26:24.043Z,98929.41
2023-10-06T21:28:53.954Z,98928.63
2023-10-06T21:31:20.659Z,98935.00
2023-10-06T21:33:49.055Z,98926.31
2023-10-06T21:36:15.992Z,98928.03
2023-10-06T21:38:42.678Z,98927.22
2023-10-06T21:41:09.459Z,98929.16
2023-10-06T21:43:36.407Z,98937.00
2023-10-06T21:46:06.803Z,98931.34
2023-10-06T21:48:34.064Z,98925.25
2023-10-06T21:51:01.363Z,98930.47
2023-10-06T21:53:28.233Z,98927.91
2023-10-06T21:55:55.170Z,98929.53
2023-10-06T21:58:22.045Z,98926.91
2023-10-06T22:00:55.425Z,98931.25
2023-10-06T22:03:22.195Z,98922.06
2023-10-06T22:05:48.955Z,98921.34
2023-10-06T22:08:15.716Z,98917.31
2023-10-06T22:10:42.466Z,98916.38
2023-10-06T22:13:09.278Z,98918.34
2023-10-06T22:15:37.223Z,98921.53
2023-10-06T22:18:06.160Z,98918.94
2023-10-06T22:20:32.896Z,98911.28
2023-10-06T22:23:00.462Z,98910.84
2023-10-06T22:25:28.628Z,98904.69
2023-10-06T22:27:56.269Z,98903.03
2023-10-06T22:30:24.333Z,98892.31
2023-10-06T22:32:51.170Z,98891.13
2023-10-06T22:35:17.959Z,98887.56
2023-10-06T22:37:44.752Z,98887.00
2023-10-06T22:40:18.355Z,98885.78
2023-10-06T22:42:49.049Z,98886.94
2023-10-06T22:45:20.343Z,98880.81
2023-10-06T22:47:51.694Z,98882.19
2023-10-06T22:50:20.587Z,98883.72
2023-10-06T22:52:49.080Z,98883.22
2023-10-06T22:55:17.931Z,98872.25
2023-10-06T22:57:45.759Z,98876.63
2023-10-06T23:00:18.402Z,98880.97
2023-10-06T23:02:45.986Z,98884.72
2023-10-06T23:05:16.210Z,98885.69
2023-10-06T23:07:43.639Z,98880.91
2023-10-06T23:10:14.448Z,98868.81
2023-10-06T23:12:52.133Z,98870.75
2023-10-06T23:15:20.217Z,98876.81
2023-10-06T23:17:47.049Z,98883.47
2023-10-06T23:20:23.671Z,98875.84
2023-10-06T23:22:54.597Z,98872.34
2023-10-06T23:25:24.072Z,98873.19
2023-10-06T23:27:51.731Z,98866.97
2023-10-06T23:30:18.919Z,98868.94
2023-10-06T23:32:50.810Z,98862.28
2023-10-06T23:35:18.666Z,98863.75
2023-10-06T23:37:51.260Z,98867.16
2023-10-06T23:40:24.087Z,98866.81
2023-10-06T23:42:56.710Z,98866.34
2023-10-06T23:45:30.898Z,98857.88
2023-10-06T23:47:58.979Z,98859.56
2023-10-06T23:50:30.343Z,98861.19
2023-10-06T23:53:01.613Z,98857.38
2023-10-06T23:55:28.892Z,98852.09
2023-10-06T23:57:56.048Z,98867.00
